Glencliff, NH

11:50 AM EDT on September 04, 2015 (GMT -0400)
Home | | Change Station
CLOSE
Current Station
Personal Weather Station
Location: Warren, NH
Elevation: 1227 ft
Nearby Weather Stations

Elev 1227 ft 43.96 °N, 71.89 °W | Updated 1 second ago

Clear
Clear
72.6 °F
Feels Like 77 °F
N
0.0
Wind Variable Wind from NNW
Gusts 5.0 mph

Today
High -- | Low -- °F
--% Chance of Precip.
Yesterday
High -- | Low -- °F
Precip. -- in
6:13 AM 7:18 PM
Waning Gibbous, 58% visible
Pressure 30.21 in
Visibility 10.0 miles
Clouds Scattered Clouds 6000 ft
Heat Index 77 °F
Dew Point 52 °F
Humidity 48%
Rainfall 0.00 in
Snow Depth Not available.
UV 6 out of 12
Pollen 7.90 out of 12
Air Quality Not available.
Flu Activity Not available.
METAR K1P1 041535Z AUTO 08005KT 10SM SCT060 22/09 A3021 RMK AO2 T02150093
Pressure 30.21 in
Visibility 10.0 miles
Clouds Scattered Clouds 6000 ft
Heat Index 77 °F
Dew Point 52 °F
Humidity 48%
Rainfall 0.00 in
Snow Depth Not available.
UV 6 out of 12
Pollen 7.90 out of 12
Air Quality Not available.
Flu Activity Not available.
METAR K1P1 041535Z AUTO 08005KT 10SM SCT060 22/09 A3021 RMK AO2 T02150093

10-Day Weather Forecast

×

Almanac

Astronomy

Sep. 04, 2015 Rise Set
Actual Time
Civil Twilight
Nautical Twilight
Astronomical Twilight
Moon
Length of Visible Light
Length of Day
Tomorrow will be .
, % of the Moon is Illuminated

Today's Extremes

State Highs State Lows

Community

WunderPhotos

Upload Photos

1,852,197 photos uploaded!

WunderBlogs® & News

Nearby

Air Quality

  Air Quality AQ Index Pollutant
Not available.

Snow Depth

Station Depth Elevation

Earthquake Activity

City Distance Mag. Time & Date
Minimum magnitude displayed is 2.5.

Coastal Water Temperatures

Place Temperature

Stations

Nearby Weather Stations

Station Location Temp. Windchill Dew Point Humidity Wind Precip. Elev Updated Type